Time;durP1;ratioP1;P1;durP2;ratioP2;P2;SDS_P1;SDS_P2;PMS_P1;PMS_P2;Temp;Humidity;BMP_temperature;BMP_pressure;BME280_temperature;BME280_humidity;BME280_pressure;Samples;Min_cycle;Max_cycle;Signal;HPM_P1;HPM_P2
2023/01/15 00:00:49;;;;;;;43.08;21.33;;;;;;;3.89;100.00;100880.38;5006984;28;20159;-77
2023/01/15 00:03:14;;;;;;;50.40;22.63;;;;;;;3.31;100.00;100780.59;4998429;28;20571;-77
2023/01/15 00:05:40;;;;;;;37.25;17.13;;;;;;;3.46;100.00;100802.72;5004060;28;20534;-78
2023/01/15 00:08:05;;;;;;;46.97;21.80;;;;;;;3.29;100.00;100789.16;5012452;28;20054;-77
2023/01/15 00:10:31;;;;;;;40.85;22.58;;;;;;;3.99;100.00;100931.75;5003856;28;20667;-78
2023/01/15 00:12:56;;;;;;;44.72;20.15;;;;;;;3.54;100.00;100838.50;5003364;28;20378;-78
2023/01/15 00:15:22;;;;;;;44.75;23.05;;;;;;;3.46;100.00;100813.09;5004478;28;20564;-77
2023/01/15 00:17:47;;;;;;;43.35;22.90;;;;;;;4.05;100.00;100925.91;5000534;28;20038;-77
2023/01/15 00:20:14;;;;;;;40.50;20.80;;;;;;;3.99;100.00;100912.72;5000459;28;20096;-77
2023/01/15 00:22:40;;;;;;;44.90;24.95;;;;;;;3.17;100.00;100776.66;5002904;28;20073;-78
2023/01/15 00:27:50;;;;;;;50.63;22.27;;;;;;;3.41;100.00;100810.34;5000804;28;20119;-77
2023/01/15 00:30:16;;;;;;;43.08;19.80;;;;;;;3.31;100.00;100790.09;5000631;28;20053;-78
2023/01/15 00:32:42;;;;;;;44.60;22.38;;;;;;;3.95;100.00;100913.44;4995845;28;20065;-78
2023/01/15 00:35:15;;;;;;;49.45;21.35;;;;;;;3.38;100.00;100820.63;5001642;28;20054;-78
2023/01/15 00:37:41;;;;;;;41.42;23.83;;;;;;;3.96;100.00;100908.28;5001821;28;20486;-77
2023/01/15 00:40:07;;;;;;;48.65;21.52;;;;;;;3.86;100.00;100890.63;5003708;28;20173;-79
2023/01/15 00:42:33;;;;;;;39.05;22.17;;;;;;;3.40;100.00;100800.81;5003321;28;20783;-78
2023/01/15 00:45:07;;;;;;;52.72;23.17;;;;;;;3.26;100.00;100789.94;4997011;28;20041;-79
2023/01/15 00:47:32;;;;;;;58.08;24.77;;;;;;;3.28;100.00;100782.22;5002090;28;20041;-80
2023/01/15 00:49:58;;;;;;;46.70;23.67;;;;;;;3.28;100.00;100777.03;4996158;28;20096;-79
2023/01/15 00:52:23;;;;;;;60.42;25.20;;;;;;;3.86;100.00;100889.75;4997117;28;20049;-76
2023/01/15 00:54:49;;;;;;;54.00;25.17;;;;;;;4.01;100.00;100900.66;5004334;28;20041;-76
2023/01/15 00:57:14;;;;;;;53.33;24.92;;;;;;;3.78;100.00;100851.44;4999649;28;20049;-77
2023/01/15 00:59:39;;;;;;;46.28;23.10;;;;;;;4.03;100.00;100880.84;5004489;28;20054;-78
2023/01/15 01:02:05;;;;;;;41.90;23.38;;;;;;;3.28;100.00;100745.91;4997568;28;20070;-76
2023/01/15 01:04:30;;;;;;;49.70;25.30;;;;;;;3.83;100.00;100854.19;5004322;28;20780;-76
2023/01/15 01:06:56;;;;;;;42.33;21.65;;;;;;;3.46;100.00;100769.00;5001673;28;20865;-77
2023/01/15 01:09:21;;;;;;;51.88;22.63;;;;;;;3.24;100.00;100734.53;4999705;28;20124;-77
2023/01/15 01:11:48;;;;;;;50.22;24.23;;;;;;;3.99;100.00;100874.63;4999611;28;20391;-77
2023/01/15 01:14:14;;;;;;;50.67;21.73;;;;;;;3.26;100.00;100752.75;5001703;28;20069;-78
2023/01/15 01:16:40;;;;;;;37.70;21.90;;;;;;;3.93;100.00;100865.75;4999768;28;20092;-78
2023/01/15 01:19:09;;;;;;;61.17;21.55;;;;;;;3.31;100.00;100746.03;5000597;28;20044;-78
2023/01/15 01:21:37;;;;;;;64.00;23.27;;;;;;;4.00;100.00;100868.63;5001478;28;20046;-77
2023/01/15 01:24:02;;;;;;;46.50;24.40;;;;;;;3.96;100.00;100852.91;4998231;28;20044;-77
2023/01/15 01:26:29;;;;;;;56.05;22.45;;;;;;;3.36;100.00;100753.13;5002590;28;20046;-78
2023/01/15 01:28:55;;;;;;;55.90;24.85;;;;;;;3.72;100.00;100814.00;5000526;28;20092;-78
2023/01/15 01:31:21;;;;;;;56.50;21.48;;;;;;;3.87;100.00;100848.28;4999298;28;20086;-78
2023/01/15 01:33:51;;;;;;;48.40;20.58;;;;;;;3.17;100.00;100725.66;4998554;28;20571;-78
2023/01/15 01:36:17;;;;;;;51.25;22.67;;;;;;;3.38;100.00;100740.22;5004187;28;20068;-77
2023/01/15 01:38:47;;;;;;;44.38;22.15;;;;;;;3.80;100.00;100831.59;5001026;28;20061;-76
2023/01/15 01:41:12;;;;;;;40.25;21.23;;;;;;;2.83;100.00;100689.00;4998681;28;20421;-77
2023/01/15 01:43:58;;;;;;;39.22;20.52;;;;;;;3.29;100.00;100752.84;5005166;28;20537;-77
2023/01/15 01:46:24;;;;;;;45.13;25.23;;;;;;;3.90;100.00;100850.09;5001374;28;20050;-80
2023/01/15 01:48:54;;;;;;;36.60;18.70;;;;;;;3.86;100.00;100843.88;5003073;28;20042;-80
2023/01/15 01:51:22;;;;;;;48.30;23.17;;;;;;;3.40;100.00;100761.91;4998175;28;20062;-78
2023/01/15 01:53:48;;;;;;;52.67;23.55;;;;;;;3.81;100.00;100820.38;5001618;28;20177;-79
2023/01/15 01:56:16;;;;;;;48.35;23.40;;;;;;;3.05;100.00;100709.69;5003651;28;20057;-80
2023/01/15 01:58:46;;;;;;;57.33;22.80;;;;;;;3.33;100.00;100749.56;5002712;28;20062;-78
2023/01/15 02:01:12;;;;;;;51.15;22.80;;;;;;;3.77;100.00;100848.81;4996592;28;20049;-79
2023/01/15 02:03:38;;;;;;;47.45;23.15;;;;;;;3.86;100.00;100851.69;5004997;28;20037;-80
2023/01/15 02:06:07;;;;;;;45.85;20.27;;;;;;;3.58;100.00;100787.56;5002217;28;20067;-81
2023/01/15 02:08:38;;;;;;;46.53;24.08;;;;;;;3.87;100.00;100840.47;4996070;28;20049;-78
2023/01/15 02:11:04;;;;;;;53.65;22.77;;;;;;;3.25;100.00;100741.47;4998946;28;20771;-78
2023/01/15 02:13:38;;;;;;;52.08;19.85;;;;;;;3.79;100.00;100811.69;4997387;28;20053;-79
2023/01/15 02:16:07;;;;;;;51.75;20.40;;;;;;;3.87;100.00;100843.06;5002940;28;20462;-78
2023/01/15 02:18:43;;;;;;;39.20;22.77;;;;;;;3.10;100.00;100718.50;5000575;28;20037;-78
2023/01/15 02:21:30;;;;;;;45.70;21.90;;;;;;;3.87;100.00;100850.88;5004680;28;20062;-77
2023/01/15 02:24:16;;;;;;;33.50;16.88;;;;;;;3.02;100.00;100709.59;4999956;28;20073;-76
2023/01/15 02:27:10;;;;;;;39.08;19.58;;;;;;;3.72;100.00;100843.44;5001445;28;20513;-79
2023/01/15 02:29:39;;;;;;;44.92;21.85;;;;;;;3.80;100.00;100834.19;4996858;28;20046;-79
2023/01/15 02:32:12;;;;;;;43.60;20.95;;;;;;;2.99;100.00;100696.50;4999923;28;20464;-80
2023/01/15 02:34:45;;;;;;;51.67;20.05;;;;;;;3.25;100.00;100745.78;5001373;28;20050;-77
2023/01/15 02:37:16;;;;;;;50.05;23.80;;;;;;;3.75;100.00;100819.31;5001401;28;20136;-78
2023/01/15 02:39:44;;;;;;;52.03;20.33;;;;;;;3.85;100.00;100839.53;4999043;28;20561;-77
2023/01/15 02:42:11;;;;;;;47.75;21.13;;;;;;;3.63;100.00;100813.69;5003877;28;20050;-77
2023/01/15 02:44:43;;;;;;;46.25;21.67;;;;;;;3.64;100.00;100805.94;5004844;28;20049;-77
2023/01/15 02:47:10;;;;;;;37.38;17.08;;;;;;;2.91;100.00;100682.41;5001133;28;20045;-79
2023/01/15 02:49:38;;;;;;;47.25;19.33;;;;;;;3.57;100.00;100788.41;5001540;28;20512;-77
2023/01/15 02:52:21;;;;;;;44.47;20.77;;;;;;;3.67;100.00;100800.84;5002898;28;20109;-80
2023/01/15 02:54:55;;;;;;;55.65;21.00;;;;;;;3.10;100.00;100671.84;5004667;28;20040;-79
2023/01/15 02:57:23;;;;;;;33.72;18.83;;;;;;;3.08;100.00;100689.03;5003227;28;20192;-81
2023/01/15 02:59:51;;;;;;;46.25;20.20;;;;;;;3.35;100.00;100740.13;5002753;28;20049;-79
2023/01/15 03:02:22;;;;;;;40.35;19.85;;;;;;;3.59;100.00;100797.13;5002766;28;20060;-78
2023/01/15 03:05:06;;;;;;;35.42;19.30;;;;;;;3.83;100.00;100827.34;5002934;28;20046;-80
2023/01/15 03:08:03;;;;;;;39.92;18.92;;;;;;;3.72;100.00;100829.56;5003876;28;20153;-78
2023/01/15 03:10:57;;;;;;;38.10;17.73;;;;;;;3.23;100.00;100732.78;4989552;28;20054;-79
2023/01/15 03:13:34;;;;;;;39.45;18.30;;;;;;;2.96;100.00;100694.69;5006053;28;20061;-79
2023/01/15 03:19:06;;;;;;;46.33;15.77;;;;;;;3.01;100.00;100720.78;5003161;28;20112;-78
2023/01/15 03:21:56;;;;;;;35.47;18.35;;;;;;;3.45;100.00;100812.22;5008711;28;20037;-80
2023/01/15 03:24:36;;;;;;;37.22;21.08;;;;;;;2.94;100.00;100714.47;4995204;28;20054;-80
2023/01/15 03:27:01;;;;;;;41.95;19.27;;;;;;;3.42;100.00;100801.75;5003824;28;20069;-80
2023/01/15 03:29:32;;;;;;;36.13;17.45;;;;;;;3.13;100.00;100751.44;5009881;28;20084;-77
2023/01/15 03:31:59;;;;;;;36.50;16.10;;;;;;;2.85;100.00;100696.00;5005588;28;20061;-78
2023/01/15 03:34:49;;;;;;;44.38;20.25;;;;;;;3.63;100.00;100818.88;5001558;28;20050;-80
2023/01/15 03:37:15;;;;;;;46.78;18.48;;;;;;;2.69;100.00;100673.88;5009421;28;20767;-77
2023/01/15 03:39:42;;;;;;;43.08;18.08;;;;;;;3.43;100.00;100803.50;5014068;28;20044;-78
2023/01/15 03:42:16;;;;;;;34.55;18.65;;;;;;;3.54;100.00;100833.28;5001926;28;20521;-77
2023/01/15 03:44:44;;;;;;;31.10;17.55;;;;;;;3.59;100.00;100818.78;5001014;28;20574;-78
2023/01/15 03:47:36;;;;;;;33.92;17.30;;;;;;;3.62;100.00;100820.59;5003165;28;20133;-77
2023/01/15 03:50:20;;;;;;;37.40;18.40;;;;;;;3.72;100.00;100824.38;4999105;28;20061;-78
2023/01/15 03:53:02;;;;;;;44.35;20.88;;;;;;;3.70;100.00;100800.97;4998142;28;20112;-79
2023/01/15 03:55:42;;;;;;;34.63;18.17;;;;;;;2.86;100.00;100679.66;4996658;28;20072;-79
2023/01/15 03:58:17;;;;;;;32.47;18.02;;;;;;;3.59;100.00;100800.59;5000502;28;20041;-78
2023/01/15 04:00:59;;;;;;;33.47;17.92;;;;;;;3.74;100.00;100815.81;5003098;28;20034;-77
2023/01/15 04:03:27;;;;;;;39.50;18.67;;;;;;;3.84;100.00;100814.44;5000244;28;20050;-77
2023/01/15 04:05:56;;;;;;;39.42;20.10;;;;;;;3.04;100.00;100683.69;4998562;28;20086;-78
2023/01/15 04:08:23;;;;;;;41.38;20.13;;;;;;;3.80;100.00;100805.66;4998928;28;20253;-78
2023/01/15 04:10:57;;;;;;;31.20;16.27;;;;;;;2.98;100.00;100674.00;5001392;28;20045;-78
2023/01/15 04:13:23;;;;;;;38.75;16.85;;;;;;;3.92;100.00;100810.38;5001191;28;20691;-78
2023/01/15 04:15:49;;;;;;;43.97;22.00;;;;;;;3.31;100.00;100700.22;5002014;28;20030;-79
2023/01/15 04:18:15;;;;;;;46.33;20.23;;;;;;;3.10;100.00;100679.63;5007940;28;20058;-76
2023/01/15 04:20:41;;;;;;;39.80;20.52;;;;;;;3.98;100.00;100809.66;5005513;28;20845;-77
2023/01/15 04:23:07;;;;;;;33.47;16.33;;;;;;;4.03;100.00;100802.94;5014062;28;20066;-76
2023/01/15 04:25:32;;;;;;;39.03;19.35;;;;;;;3.32;100.00;100680.34;5001290;28;20057;-77
2023/01/15 04:27:58;;;;;;;40.97;21.02;;;;;;;3.97;100.00;100806.19;4998576;28;20390;-76
2023/01/15 04:30:23;;;;;;;55.92;20.05;;;;;;;3.64;100.00;100789.50;5000612;28;20103;-78
2023/01/15 04:32:50;;;;;;;45.17;21.13;;;;;;;3.90;100.00;100803.34;5000770;28;20100;-79
2023/01/15 04:35:16;;;;;;;47.90;24.20;;;;;;;3.89;100.00;100801.59;5001297;28;21510;-79
2023/01/15 04:37:41;;;;;;;45.22;22.05;;;;;;;3.89;100.00;100784.31;5001887;28;20045;-81
2023/01/15 04:40:08;;;;;;;43.25;19.77;;;;;;;3.87;100.00;100790.28;5004669;28;20052;-76
2023/01/15 04:45:17;;;;;;;43.92;19.42;;;;;;;3.30;100.00;100676.81;5001256;28;20061;-79
2023/01/15 04:47:43;;;;;;;49.47;23.02;;;;;;;3.96;100.00;100769.81;5001314;28;20050;-79
2023/01/15 04:50:10;;;;;;;50.60;21.00;;;;;;;3.53;100.00;100712.19;5001117;28;20080;-79
2023/01/15 04:52:36;;;;;;;55.47;23.95;;;;;;;4.13;100.00;100805.00;5004760;28;20041;-79
2023/01/15 04:55:01;;;;;;;40.75;23.10;;;;;;;3.32;100.00;100680.34;5002754;28;20624;-79
2023/01/15 04:57:27;;;;;;;40.58;19.95;;;;;;;4.12;100.00;100813.63;5003413;28;20034;-79
2023/01/15 04:59:52;;;;;;;51.80;21.60;;;;;;;4.12;100.00;100799.75;4999103;28;20050;-77
2023/01/15 05:02:17;;;;;;;60.08;22.80;;;;;;;3.35;100.00;100688.25;5005662;28;20053;-78
2023/01/15 05:04:43;;;;;;;54.55;22.08;;;;;;;4.08;100.00;100795.31;5002955;28;20843;-77
2023/01/15 05:07:09;;;;;;;47.10;21.55;;;;;;;4.21;100.00;100818.22;4999687;28;20049;-77
2023/01/15 05:09:34;;;;;;;56.03;24.17;;;;;;;4.22;100.00;100827.78;5006457;28;20503;-77
2023/01/15 05:12:00;;;;;;;58.33;25.48;;;;;;;3.90;100.00;100772.22;5003533;28;20050;-77
2023/01/15 05:14:25;;;;;;;45.22;22.75;;;;;;;4.24;100.00;100823.53;5004622;28;20049;-77
2023/01/15 05:16:51;;;;;;;67.05;23.75;;;;;;;4.17;100.00;100818.97;4997553;28;20066;-76
2023/01/15 05:19:16;;;;;;;64.72;26.13;;;;;;;4.04;100.00;100796.91;5011447;28;20493;-76
2023/01/15 05:21:43;;;;;;;53.58;25.90;;;;;;;4.09;100.00;100797.94;5006217;28;20391;-76
2023/01/15 05:24:13;;;;;;;42.92;20.75;;;;;;;4.03;100.00;100782.16;4998682;28;20517;-77
2023/01/15 05:26:39;;;;;;;57.03;25.45;;;;;;;4.23;100.00;100812.22;5010148;28;20416;-79
2023/01/15 05:29:04;;;;;;;43.33;24.30;;;;;;;4.03;100.00;100782.16;5001509;28;20050;-78
2023/01/15 05:31:32;;;;;;;45.33;24.63;;;;;;;4.30;100.00;100815.03;4998936;28;20386;-79
2023/01/15 05:33:58;;;;;;;51.03;22.63;;;;;;;4.18;100.00;100800.81;5000718;28;20061;-77
2023/01/15 05:36:27;;;;;;;45.88;22.55;;;;;;;4.19;100.00;100827.66;5004587;28;20038;-79
2023/01/15 05:38:53;;;;;;;53.75;25.98;;;;;;;4.02;100.00;100796.84;4989770;28;20069;-78
2023/01/15 05:44:07;;;;;;;53.10;24.17;;;;;;;3.53;100.00;100719.09;4996369;28;20060;-81
2023/01/15 05:46:34;;;;;;;42.10;22.88;;;;;;;3.59;100.00;100706.31;4991010;28;20156;-79
2023/01/15 05:49:01;;;;;;;38.28;23.98;;;;;;;4.16;100.00;100801.59;4998882;28;20033;-79
2023/01/15 05:51:27;;;;;;;40.83;23.00;;;;;;;4.25;100.00;100829.59;4999365;28;20050;-78
2023/01/15 05:53:52;;;;;;;47.28;23.90;;;;;;;3.61;100.00;100714.16;5005221;28;20105;-79
2023/01/15 05:56:18;;;;;;;41.58;23.13;;;;;;;4.29;100.00;100834.06;5007583;28;20084;-78
2023/01/15 05:58:43;;;;;;;49.42;23.27;;;;;;;4.30;100.00;100833.22;4999554;28;20046;-81
2023/01/15 06:01:09;;;;;;;43.53;25.08;;;;;;;4.30;100.00;100830.63;5005376;28;20045;-79
2023/01/15 06:03:35;;;;;;;50.92;23.80;;;;;;;3.53;100.00;100706.13;5005375;28;20504;-79
2023/01/15 06:06:01;;;;;;;45.88;23.83;;;;;;;4.02;100.00;100776.06;5004292;28;20124;-79
2023/01/15 06:08:27;;;;;;;44.25;25.63;;;;;;;3.75;100.00;100721.56;4997891;28;20504;-79
2023/01/15 06:10:52;;;;;;;57.72;24.88;;;;;;;4.16;100.00;100840.56;5003419;28;20141;-81
2023/01/15 06:13:18;;;;;;;56.35;25.17;;;;;;;4.14;100.00;100818.84;5000656;28;20053;-77
2023/01/15 06:15:43;;;;;;;67.07;28.23;;;;;;;3.56;100.00;100720.09;5001539;28;20037;-77
2023/01/15 06:18:09;;;;;;;62.53;26.42;;;;;;;4.46;100.00;100852.78;5000250;28;20053;-79
2023/01/15 06:20:36;;;;;;;51.45;26.75;;;;;;;4.39;100.00;100830.91;5000893;28;20038;-76
2023/01/15 06:23:02;;;;;;;53.88;26.73;;;;;;;4.27;100.00;100822.75;5000246;28;20192;-76
2023/01/15 06:25:27;;;;;;;57.33;26.88;;;;;;;4.08;100.00;100821.28;4997119;28;20722;-76
2023/01/15 06:27:53;;;;;;;64.30;28.42;;;;;;;4.49;100.00;100865.88;4994889;28;20463;-78
2023/01/15 06:30:18;;;;;;;52.38;26.05;;;;;;;4.38;100.00;100874.22;4996700;28;20057;-78
2023/01/15 06:32:44;;;;;;;49.38;25.77;;;;;;;4.49;100.00;100864.16;4998888;28;20049;-78
2023/01/15 06:35:10;;;;;;;56.35;29.40;;;;;;;4.34;100.00;100845.47;4996967;28;20054;-78
2023/01/15 06:37:35;;;;;;;48.17;27.50;;;;;;;4.45;100.00;100864.91;4997314;28;20129;-78
2023/01/15 06:40:00;;;;;;;44.72;24.70;;;;;;;3.87;100.00;100761.72;4999125;28;20045;-77
2023/01/15 06:47:57;;;;;;;34.00;21.98;;;;;;;3.91;100.00;100755.78;5000942;28;20147;-78
2023/01/15 06:50:24;;;;;;;50.63;26.10;;;;;;;3.83;100.00;100737.38;5004141;28;20050;-78
2023/01/15 06:52:50;;;;;;;51.10;23.70;;;;;;;4.12;100.00;100779.88;5006118;28;20045;-78
2023/01/15 06:55:17;;;;;;;43.58;24.02;;;;;;;4.15;100.00;100771.28;5003506;28;20046;-80
2023/01/15 06:57:43;;;;;;;40.42;22.15;;;;;;;3.99;100.00;100762.13;5001663;28;20528;-78
2023/01/15 07:00:10;;;;;;;51.10;24.35;;;;;;;3.94;100.00;100779.28;5001383;28;20057;-80
2023/01/15 07:02:36;;;;;;;54.78;26.13;;;;;;;4.63;100.00;100882.78;4998339;28;20111;-81
2023/01/15 07:05:03;;;;;;;47.63;25.77;;;;;;;4.61;100.00;100877.56;5000006;28;20054;-81
2023/01/15 07:07:29;;;;;;;39.65;22.77;;;;;;;4.82;100.00;100916.34;5005284;28;20494;-79
2023/01/15 07:09:54;;;;;;;43.92;25.23;;;;;;;4.52;100.00;100878.94;5009216;28;20041;-80
2023/01/15 07:12:21;;;;;;;45.80;23.38;;;;;;;4.87;100.00;100924.28;4995960;28;20050;-79
2023/01/15 07:14:47;;;;;;;37.50;22.85;;;;;;;4.66;100.00;100890.69;5001798;28;20498;-76
2023/01/15 07:17:13;;;;;;;41.72;25.98;;;;;;;4.74;100.00;100899.59;5001656;28;20061;-78
2023/01/15 07:19:39;;;;;;;42.35;23.92;;;;;;;4.89;100.00;100929.50;5001346;28;20102;-77
2023/01/15 07:22:05;;;;;;;38.88;23.90;;;;;;;4.18;100.00;100793.03;4999238;28;20048;-78
2023/01/15 07:24:31;;;;;;;38.30;22.00;;;;;;;4.20;100.00;100788.78;5000541;28;20069;-79
2023/01/15 07:26:56;;;;;;;47.25;25.40;;;;;;;5.04;100.00;100936.06;4996902;28;20502;-79
2023/01/15 07:29:22;;;;;;;45.67;23.38;;;;;;;4.19;100.00;100815.59;4997841;28;20050;-79
2023/01/15 07:31:48;;;;;;;39.85;25.38;;;;;;;4.22;100.00;100820.00;5008254;28;20544;-80
2023/01/15 07:34:14;;;;;;;47.83;26.88;;;;;;;4.78;100.00;100950.00;5005983;28;20068;-81
2023/01/15 07:36:40;;;;;;;46.20;27.30;;;;;;;4.92;100.00;100943.50;5006362;28;20664;-79
2023/01/15 07:39:07;;;;;;;46.75;24.10;;;;;;;4.33;100.00;100843.69;4999431;28;20660;-78
2023/01/15 07:49:47;;;;;;;49.15;26.83;;;;;;;5.00;100.00;100985.34;5004685;28;20470;-79
2023/01/15 07:52:18;;;;;;;46.33;27.27;;;;;;;4.98;100.00;100998.28;5011488;28;20124;-79
2023/01/15 07:54:45;;;;;;;50.15;27.30;;;;;;;5.06;100.00;100996.81;5010872;28;20040;-80
2023/01/15 07:57:12;;;;;;;48.70;26.27;;;;;;;4.16;100.00;100856.16;5007585;28;20054;-81
2023/01/15 07:59:38;;;;;;;55.20;27.13;;;;;;;4.41;100.00;100883.81;5007054;28;20049;-79
2023/01/15 08:02:04;;;;;;;44.33;24.75;;;;;;;4.27;100.00;100857.38;4997465;28;20657;-78
2023/01/15 08:04:29;;;;;;;59.10;33.17;;;;;;;4.34;100.00;100874.94;5006392;28;20049;-78
2023/01/15 08:06:55;;;;;;;46.58;24.73;;;;;;;4.19;100.00;100853.63;5008452;28;20423;-75
2023/01/15 08:09:20;;;;;;;47.22;28.23;;;;;;;5.03;100.00;101004.53;5003924;28;20098;-78
2023/01/15 08:17:14;;;;;;;47.53;27.77;;;;;;;4.92;100.00;101025.84;4998236;28;20468;-78
2023/01/15 08:19:40;;;;;;;52.33;27.05;;;;;;;4.49;100.00;100916.13;5001543;28;20046;-75
2023/01/15 08:22:05;;;;;;;53.70;29.63;;;;;;;4.17;100.00;100860.53;5003284;28;20431;-76
2023/01/15 08:24:30;;;;;;;48.47;26.95;;;;;;;4.99;100.00;101017.41;5002315;28;20072;-78
2023/01/15 08:26:56;;;;;;;57.47;28.77;;;;;;;4.76;100.00;100981.13;5012210;28;20091;-77
2023/01/15 08:29:22;;;;;;;53.22;27.08;;;;;;;4.43;100.00;100909.00;5001811;28;20062;-78
2023/01/15 08:31:47;;;;;;;57.38;31.58;;;;;;;5.06;100.00;101028.03;5000772;28;20050;-79
2023/01/15 08:34:13;;;;;;;52.83;32.13;;;;;;;4.48;100.00;100942.06;4999893;28;20460;-77
2023/01/15 08:36:38;;;;;;;50.65;26.45;;;;;;;4.32;100.00;100897.38;4997086;28;20038;-76
2023/01/15 08:39:04;;;;;;;58.53;31.13;;;;;;;5.07;100.00;101054.94;5008297;28;20045;-75
2023/01/15 08:41:31;;;;;;;41.97;24.02;;;;;;;4.34;100.00;100947.69;4993080;28;20144;-76
2023/01/15 08:43:56;;;;;;;42.22;24.13;;;;;;;4.90;100.00;101017.09;4992092;28;20103;-76
2023/01/15 08:46:22;;;;;;;42.13;29.60;;;;;;;4.55;100.00;100972.63;4996476;28;20568;-76
2023/01/15 08:48:48;;;;;;;51.40;27.50;;;;;;;5.00;100.00;101032.16;5004492;28;20103;-77
2023/01/15 08:51:14;;;;;;;42.35;23.40;;;;;;;4.56;100.00;100963.97;5010208;28;20045;-76
2023/01/15 08:53:40;;;;;;;38.78;26.02;;;;;;;4.60;100.00;100968.44;5006089;28;20088;-76
2023/01/15 08:56:16;;;;;;;34.95;23.08;;;;;;;4.56;100.00;101002.97;5009733;28;20124;-76
2023/01/15 08:58:42;;;;;;;32.25;23.85;;;;;;;5.10;100.00;101067.16;5002918;28;20065;-75
2023/01/15 09:01:11;;;;;;;40.03;23.63;;;;;;;4.34;100.00;100945.06;5008661;28;20042;-75
2023/01/15 09:03:37;;;;;;;44.30;24.25;;;;;;;4.96;100.00;101049.34;5003995;28;20474;-77
2023/01/15 09:06:04;;;;;;;36.22;24.05;;;;;;;4.51;100.00;100965.53;5003814;28;20127;-77
2023/01/15 09:08:30;;;;;;;38.10;25.27;;;;;;;4.98;100.00;101024.28;5002601;28;20141;-77
2023/01/15 09:11:01;;;;;;;43.40;24.73;;;;;;;4.52;100.00;100938.72;5001577;28;20761;-76
2023/01/15 09:13:28;;;;;;;36.50;22.42;;;;;;;4.59;100.00;100938.13;4994821;28;20085;-77
2023/01/15 09:15:53;;;;;;;34.25;22.02;;;;;;;4.40;100.00;100905.41;4996878;28;20053;-78
2023/01/15 09:18:19;;;;;;;38.13;20.08;;;;;;;5.12;100.00;101031.66;5004279;28;20062;-77
2023/01/15 09:20:45;;;;;;;33.70;18.83;;;;;;;5.27;100.00;101073.78;5011904;28;20045;-76
2023/01/15 09:23:11;;;;;;;37.13;21.60;;;;;;;5.24;100.00;101045.97;4994281;28;20505;-75
2023/01/15 09:25:37;;;;;;;32.88;20.65;;;;;;;5.47;100.00;101058.78;5006963;28;20140;-77
2023/01/15 09:28:02;;;;;;;35.58;21.67;;;;;;;5.41;100.00;101066.44;5005081;28;20441;-76
2023/01/15 09:30:28;;;;;;;38.78;22.13;;;;;;;5.21;100.00;101017.22;5012383;28;20040;-75
2023/01/15 09:32:54;;;;;;;35.60;22.10;;;;;;;5.44;100.00;101072.59;4998863;28;20402;-76
2023/01/15 09:35:21;;;;;;;38.92;24.67;;;;;;;5.43;100.00;101072.53;4994870;28;20042;-75
2023/01/15 09:37:54;;;;;;;34.10;18.65;;;;;;;5.39;100.00;101035.16;4996759;28;20059;-77
2023/01/15 09:40:39;;;;;;;33.85;21.00;;;;;;;5.56;100.00;101063.41;4997894;28;20056;-75
2023/01/15 09:43:11;;;;;;;32.30;20.60;;;;;;;5.52;100.00;101039.00;4999245;28;20137;-77
2023/01/15 09:45:48;;;;;;;30.10;19.90;;;;;;;5.32;100.00;101027.09;4996602;28;20042;-75
2023/01/15 09:48:22;;;;;;;33.55;19.83;;;;;;;5.78;100.00;101098.78;4997101;28;20069;-74
2023/01/15 09:51:11;;;;;;;33.72;20.48;;;;;;;5.86;100.00;101097.31;4997764;28;20053;-74
2023/01/15 09:53:45;;;;;;;36.03;20.55;;;;;;;5.92;100.00;101098.38;4995945;28;20119;-75
2023/01/15 09:56:21;;;;;;;31.33;21.42;;;;;;;5.32;100.00;101034.91;4996690;28;20064;-74
2023/01/15 09:58:46;;;;;;;33.05;22.60;;;;;;;5.05;100.00;100978.56;4997352;28;20050;-74
2023/01/15 10:01:30;;;;;;;26.33;18.63;;;;;;;5.20;100.00;100965.16;5003237;28;20060;-73
2023/01/15 10:04:01;;;;;;;;;;;;;;;5.87;100.00;101099.06;4998483;28;20030;-75
2023/01/15 10:06:31;;;;;;;36.95;21.13;;;;;;;5.48;100.00;101006.81;5011147;28;19925;-74
2023/01/15 10:09:13;;;;;;;42.65;26.55;;;;;;;6.00;100.00;101085.63;4996835;28;20128;-78
2023/01/15 10:14:56;;;;;;;39.05;24.88;;;;;;;6.04;100.00;101079.66;5004710;28;20410;-76
2023/01/15 10:17:30;;;;;;;28.88;18.90;;;;;;;5.89;100.00;101087.84;4999286;28;20121;-76
2023/01/15 10:19:57;;;;;;;29.77;19.65;;;;;;;5.97;100.00;101076.81;5003082;28;20090;-76
2023/01/15 10:22:36;;;;;;;26.20;17.15;;;;;;;5.99;100.00;101060.38;5006282;28;20268;-74
2023/01/15 10:25:09;;;;;;;30.13;18.75;;;;;;;5.92;100.00;101076.63;5017965;28;20204;-77
2023/01/15 10:27:39;;;;;;;26.10;18.10;;;;;;;5.99;100.00;101080.34;5003246;28;20386;-78
2023/01/15 10:30:15;;;;;;;27.83;19.52;;;;;;;5.99;100.00;101064.72;5003085;28;20157;-81
2023/01/15 10:32:50;;;;;;;28.90;16.15;;;;;;;5.38;100.00;100951.81;5002291;28;20093;-76
2023/01/15 10:36:03;;;;;;;30.23;17.25;;;;;;;6.07;100.00;101064.09;5004670;28;20096;-76
2023/01/15 10:38:40;;;;;;;25.20;15.67;;;;;;;5.58;100.00;101005.34;4998869;28;20593;-79
2023/01/15 10:41:39;;;;;;;26.85;17.48;;;;;;;5.90;100.00;101063.59;5003280;28;20506;-78
2023/01/15 10:44:23;;;;;;;28.10;17.23;;;;;;;5.26;100.00;100957.53;5009895;28;20141;-76
2023/01/15 10:46:55;;;;;;;28.13;16.63;;;;;;;5.64;100.00;100992.53;4991987;28;20042;-78
2023/01/15 10:49:20;;;;;;;32.42;19.48;;;;;;;6.09;100.00;101040.72;5008393;28;20055;-77
2023/01/15 10:51:55;;;;;;;28.13;18.55;;;;;;;5.68;100.00;100942.28;5005584;28;20397;-76
2023/01/15 10:54:28;;;;;;;29.98;19.88;;;;;;;6.11;100.00;101052.94;5011804;28;20061;-77
2023/01/15 10:57:10;;;;;;;33.17;19.77;;;;;;;6.32;100.00;101051.75;5009196;28;20041;-78
2023/01/15 10:59:47;;;;;;;32.45;20.75;;;;;;;6.18;100.00;101038.38;5005401;28;20050;-77
2023/01/15 11:02:18;;;;;;;26.95;16.20;;;;;;;5.39;100.00;100891.16;5000353;28;20053;-77
2023/01/15 11:04:44;;;;;;;27.92;18.30;;;;;;;6.41;100.00;101030.28;4999797;28;20049;-76
2023/01/15 11:07:12;;;;;;;34.15;18.00;;;;;;;6.17;100.00;101020.06;4998845;28;20034;-81
2023/01/15 11:09:40;;;;;;;30.35;21.88;;;;;;;6.09;100.00;100993.81;4997833;28;20176;-80
2023/01/15 11:20:56;;;;;;;22.63;16.10;;;;;;;5.46;100.00;100882.66;5004612;28;20063;-75
2023/01/15 11:23:22;;;;;;;45.28;15.85;;;;;;;6.15;100.00;100962.69;5005942;28;20042;-74
2023/01/15 11:25:54;;;;;;;31.63;16.73;;;;;;;5.69;100.00;100943.19;4997671;28;20490;-78
2023/01/15 11:28:42;;;;;;;33.95;21.58;;;;;;;6.29;100.00;101013.47;5003251;28;20052;-75
2023/01/15 11:31:09;;;;;;;26.13;16.92;;;;;;;6.42;100.00;101009.47;5005072;28;20148;-77
2023/01/15 11:33:36;;;;;;;25.35;15.50;;;;;;;6.24;100.00;100970.78;5013824;28;20038;-75
2023/01/15 11:36:07;;;;;;;31.25;17.55;;;;;;;6.47;100.00;100996.56;5012946;28;20160;-76
2023/01/15 11:38:47;;;;;;;28.40;19.95;;;;;;;6.22;100.00;100950.72;5000071;28;20034;-77
2023/01/15 11:41:23;;;;;;;29.05;17.77;;;;;;;6.50;100.00;100967.97;5001221;28;20632;-75
2023/01/15 11:52:16;;;;;;;37.13;24.20;;;;;;;5.74;100.00;100883.44;4999222;28;20088;-76
2023/01/15 11:54:48;;;;;;;46.25;26.38;;;;;;;6.24;100.00;100920.38;5008984;28;20134;-79
2023/01/15 11:57:30;;;;;;;36.92;20.83;;;;;;;5.97;100.00;100864.13;5008658;28;20077;-79
2023/01/15 11:59:57;;;;;;;28.38;19.02;;;;;;;6.09;100.00;100860.97;5004018;28;20069;-77
2023/01/15 12:02:44;;;;;;;39.33;25.02;;;;;;;6.72;100.00;100949.41;5014307;28;20057;-74
2023/01/15 12:05:23;;;;;;;34.78;19.77;;;;;;;6.80;100.00;100954.81;5002556;28;20050;-75
2023/01/15 12:07:52;;;;;;;39.55;26.85;;;;;;;6.76;100.00;100958.16;4995878;28;20058;-78
2023/01/15 12:13:17;;;;;;;34.65;19.48;;;;;;;6.45;100.00;100995.63;4998676;28;20048;-75